Time;durP1;ratioP1;P1;durP2;ratioP2;P2;SDS_P1;SDS_P2;PMS_P1;PMS_P2;Temp;Humidity;BMP_temperature;BMP_pressure;BME280_temperature;BME280_humidity;BME280_pressure;Samples;Min_cycle;Max_cycle;Signal;HPM_P1;HPM_P2
2022/08/31 00:04:25;;;;;;;5.88;2.50;;;19.10;99.90;;;;;;5055203;28;20047;-63
2022/08/31 00:06:51;;;;;;;4.13;2.83;;;19.20;99.90;;;;;;5055174;28;20045;-63
2022/08/31 00:09:16;;;;;;;4.95;3.08;;;19.20;99.90;;;;;;5055033;28;20124;-63
2022/08/31 00:11:42;;;;;;;3.30;2.47;;;19.40;99.90;;;;;;5054623;28;20041;-64
2022/08/31 00:14:09;;;;;;;4.55;2.30;;;19.50;99.90;;;;;;5055242;28;20102;-64
2022/08/31 00:16:37;;;;;;;5.00;2.38;;;19.30;99.90;;;;;;5067418;28;20067;-64
2022/08/31 00:19:04;;;;;;;3.47;2.47;;;19.20;99.90;;;;;;5053997;28;20039;-64
2022/08/31 00:21:30;;;;;;;4.00;2.63;;;19.20;99.90;;;;;;5054917;28;20048;-64
2022/08/31 00:23:56;;;;;;;4.07;2.50;;;19.30;99.90;;;;;;5055091;28;20508;-64
2022/08/31 00:26:23;;;;;;;5.13;2.72;;;19.20;99.90;;;;;;5054797;28;20040;-64
2022/08/31 00:28:49;;;;;;;3.55;2.75;;;19.10;99.90;;;;;;5054615;28;20048;-64
2022/08/31 00:31:15;;;;;;;3.35;2.42;;;19.00;99.90;;;;;;5054603;28;20089;-63
2022/08/31 00:33:41;;;;;;;2.72;2.25;;;18.90;99.90;;;;;;5054909;28;20041;-63
2022/08/31 00:36:11;;;;;;;3.05;2.50;;;19.00;99.90;;;;;;5054902;28;20037;-63
2022/08/31 00:38:41;;;;;;;3.83;2.43;;;19.00;99.90;;;;;;5054757;28;20120;-64
2022/08/31 00:41:09;;;;;;;3.35;2.40;;;19.10;99.90;;;;;;5054600;28;20040;-63
2022/08/31 00:43:39;;;;;;;6.05;2.50;;;19.00;99.90;;;;;;5054425;28;20060;-63
2022/08/31 00:46:11;;;;;;;7.70;3.70;;;19.00;99.90;;;;;;5054864;28;20123;-63
2022/08/31 00:48:42;;;;;;;5.55;3.45;;;18.90;99.90;;;;;;5054611;28;20044;-64
2022/08/31 00:51:08;;;;;;;5.55;3.55;;;18.80;99.90;;;;;;5054121;28;20036;-64
2022/08/31 00:53:35;;;;;;;5.75;3.67;;;18.80;99.90;;;;;;5054351;28;20120;-63
2022/08/31 00:56:01;;;;;;;5.07;3.42;;;18.90;99.90;;;;;;5054184;28;20488;-63
2022/08/31 00:58:27;;;;;;;6.72;4.03;;;19.00;99.90;;;;;;5054153;28;20037;-63
2022/08/31 01:00:52;;;;;;;5.10;3.78;;;18.90;99.90;;;;;;5054139;28;20094;-63
2022/08/31 01:03:19;;;;;;;5.75;3.80;;;19.00;99.90;;;;;;5054178;28;20483;-63
2022/08/31 01:05:45;;;;;;;6.00;3.72;;;19.00;99.90;;;;;;5054231;28;20063;-64
2022/08/31 01:08:11;;;;;;;4.18;3.33;;;19.00;99.90;;;;;;5054235;28;20053;-64
2022/08/31 01:10:42;;;;;;;5.22;3.70;;;19.00;99.90;;;;;;5060623;28;20039;-63
2022/08/31 01:13:11;;;;;;;7.47;3.80;;;19.00;99.90;;;;;;5074173;28;20534;-63
2022/08/31 01:15:41;;;;;;;6.20;3.33;;;19.00;99.90;;;;;;5074161;28;20032;-63
2022/08/31 01:18:08;;;;;;;6.55;3.60;;;18.90;99.90;;;;;;5074254;28;20060;-63
2022/08/31 01:20:59;;;;;;;4.55;3.20;;;18.80;99.90;;;;;;5074063;28;20036;-63
2022/08/31 01:23:41;;;;;;;4.57;2.97;;;18.80;99.90;;;;;;5074161;28;20045;-63
2022/08/31 01:26:09;;;;;;;5.10;3.30;;;18.80;99.90;;;;;;5074132;28;20052;-64
2022/08/31 01:28:36;;;;;;;6.15;3.60;;;18.90;99.90;;;;;;5073690;28;20044;-63
2022/08/31 01:31:05;;;;;;;4.93;3.33;;;18.80;99.90;;;;;;5073920;28;20033;-64
2022/08/31 01:33:32;;;;;;;7.32;3.20;;;19.00;99.90;;;;;;5073839;28;20076;-63
2022/08/31 01:35:58;;;;;;;5.88;3.70;;;19.00;99.90;;;;;;5073926;28;20048;-64
2022/08/31 01:38:25;;;;;;;5.00;3.13;;;18.90;99.90;;;;;;5073969;28;20127;-63
2022/08/31 01:40:54;;;;;;;4.78;3.38;;;18.90;99.90;;;;;;5074030;28;20090;-64
2022/08/31 01:43:21;;;;;;;;;;;18.90;99.90;;;;;;5074146;28;20139;-63
2022/08/31 01:45:47;;;;;;;4.18;2.90;;;18.90;99.90;;;;;;5073984;28;19959;-63
2022/08/31 01:48:13;;;;;;;4.65;3.05;;;19.00;99.90;;;;;;5073631;28;20507;-63
2022/08/31 01:50:39;;;;;;;7.10;3.67;;;19.00;99.90;;;;;;5073623;28;20047;-63
2022/08/31 01:53:05;;;;;;;5.00;3.75;;;19.10;99.90;;;;;;5073873;28;20043;-64
2022/08/31 01:55:31;;;;;;;5.63;3.72;;;19.10;99.90;;;;;;5074087;28;20052;-63
2022/08/31 01:57:58;;;;;;;6.55;3.63;;;19.10;99.90;;;;;;5073807;28;20101;-63
2022/08/31 02:00:26;;;;;;;4.00;3.22;;;19.10;99.90;;;;;;5073572;28;20075;-63
2022/08/31 02:02:52;;;;;;;4.72;3.38;;;18.90;99.90;;;;;;5073797;28;20048;-63
2022/08/31 02:05:18;;;;;;;3.70;2.67;;;19.00;99.90;;;;;;5073325;28;20089;-63
2022/08/31 02:07:44;;;;;;;4.93;3.20;;;19.00;99.90;;;;;;5073437;28;20135;-64
2022/08/31 02:10:10;;;;;;;4.03;2.90;;;19.00;99.90;;;;;;5073469;28;20041;-64
2022/08/31 02:12:36;;;;;;;4.43;3.13;;;19.10;99.90;;;;;;5073473;28;20048;-63
2022/08/31 02:15:01;;;;;;;5.70;3.47;;;18.80;99.90;;;;;;5073078;28;20483;-64
2022/08/31 02:17:27;;;;;;;5.15;3.40;;;18.80;99.90;;;;;;5073273;28;20044;-63
2022/08/31 02:19:53;;;;;;;6.03;3.47;;;18.90;99.90;;;;;;5073285;28;20041;-64
2022/08/31 02:22:19;;;;;;;5.45;3.55;;;19.00;99.90;;;;;;5073425;28;20052;-63
2022/08/31 02:24:45;;;;;;;4.22;3.08;;;19.00;99.90;;;;;;5073486;28;20482;-64
2022/08/31 02:27:10;;;;;;;4.53;2.78;;;18.90;99.90;;;;;;5073546;28;20102;-63
2022/08/31 02:29:36;;;;;;;3.38;2.53;;;18.90;99.90;;;;;;5073239;28;20036;-63
2022/08/31 02:32:03;;;;;;;4.43;2.97;;;18.70;99.90;;;;;;5073430;28;20118;-63
2022/08/31 02:34:29;;;;;;;4.55;3.45;;;18.50;99.90;;;;;;5075998;28;20183;-64
2022/08/31 02:36:55;;;;;;;5.30;3.85;;;18.50;99.90;;;;;;5077154;28;20547;-63
2022/08/31 02:39:21;;;;;;;5.28;3.72;;;18.50;99.90;;;;;;5076813;28;20076;-63
2022/08/31 02:41:47;;;;;;;4.65;3.15;;;18.70;99.90;;;;;;5076599;28;20044;-64
2022/08/31 02:44:13;;;;;;;6.97;3.83;;;18.80;99.90;;;;;;5076734;28;20044;-63
2022/08/31 02:46:39;;;;;;;7.82;3.63;;;18.80;99.90;;;;;;5076714;28;20055;-63
2022/08/31 02:49:05;;;;;;;5.45;3.80;;;18.80;99.90;;;;;;5076588;28;20514;-63
2022/08/31 02:51:31;;;;;;;4.55;3.38;;;18.80;99.90;;;;;;5076400;28;20040;-64
2022/08/31 02:53:56;;;;;;;5.30;3.63;;;18.70;99.90;;;;;;5076860;28;20044;-63
2022/08/31 02:56:23;;;;;;;5.50;4.35;;;18.70;99.90;;;;;;5076655;28;20068;-63
2022/08/31 02:58:53;;;;;;;5.10;3.33;;;18.50;99.90;;;;;;5076473;28;20127;-63
2022/08/31 03:01:22;;;;;;;4.50;3.60;;;18.60;99.90;;;;;;5076433;28;20463;-63
2022/08/31 03:03:48;;;;;;;5.63;3.70;;;18.70;99.90;;;;;;5076342;28;20041;-63
2022/08/31 03:06:14;;;;;;;5.75;3.40;;;18.70;99.90;;;;;;5076338;28;20040;-63
2022/08/31 03:08:41;;;;;;;5.88;3.78;;;18.60;99.90;;;;;;5076279;28;20063;-64
2022/08/31 03:11:07;;;;;;;5.53;3.58;;;18.60;99.90;;;;;;5076357;28;20487;-64
2022/08/31 03:13:36;;;;;;;5.50;3.85;;;18.60;99.90;;;;;;5076218;28;20041;-63
2022/08/31 03:16:03;;;;;;;5.47;3.55;;;18.60;99.90;;;;;;5076087;28;20119;-63
2022/08/31 03:18:29;;;;;;;4.38;3.05;;;18.60;99.90;;;;;;5076095;28;20502;-64
2022/08/31 03:20:55;;;;;;;4.20;3.13;;;18.50;99.90;;;;;;5075989;28;20071;-64
2022/08/31 03:23:23;;;;;;;6.78;3.63;;;18.30;99.90;;;;;;5076147;28;20381;-64
2022/08/31 03:25:49;;;;;;;4.78;3.03;;;18.20;99.90;;;;;;5076022;28;20033;-64
2022/08/31 03:28:14;;;;;;;6.07;3.78;;;18.20;99.90;;;;;;5076106;28;20032;-64
2022/08/31 03:30:41;;;;;;;6.38;3.38;;;18.20;99.90;;;;;;5075945;28;20041;-64
2022/08/31 03:33:07;;;;;;;5.60;3.47;;;18.20;99.90;;;;;;5076105;28;20044;-64
2022/08/31 03:35:33;;;;;;;8.38;3.65;;;18.20;99.90;;;;;;5075947;28;20043;-65
2022/08/31 03:38:01;;;;;;;3.80;3.05;;;18.20;99.90;;;;;;5076033;28;20036;-64
2022/08/31 03:40:27;;;;;;;5.38;3.63;;;18.10;99.90;;;;;;5075764;28;20049;-64
2022/08/31 03:42:53;;;;;;;6.15;3.75;;;17.90;99.90;;;;;;5075733;28;20090;-65
2022/08/31 03:45:19;;;;;;;7.68;3.55;;;17.80;99.90;;;;;;5075467;28;20235;-63
2022/08/31 03:47:45;;;;;;;5.85;3.67;;;17.90;99.90;;;;;;5075592;28;20074;-64
2022/08/31 03:50:11;;;;;;;5.55;3.15;;;17.90;99.90;;;;;;5075790;28;20127;-64
2022/08/31 03:52:37;;;;;;;5.13;3.63;;;17.80;99.90;;;;;;5075416;28;20090;-64
2022/08/31 03:55:05;;;;;;;6.15;4.25;;;17.70;99.90;;;;;;5075636;28;20451;-64
2022/08/31 03:57:32;;;;;;;6.93;3.47;;;17.60;99.90;;;;;;5075391;28;20033;-65
2022/08/31 03:59:59;;;;;;;3.72;3.10;;;17.60;99.90;;;;;;5075544;28;20094;-63
2022/08/31 04:02:25;;;;;;;5.47;3.15;;;17.60;99.90;;;;;;5075484;28;20044;-63
2022/08/31 04:04:52;;;;;;;8.27;3.58;;;17.50;99.90;;;;;;5075104;28;20041;-63
2022/08/31 04:07:19;;;;;;;5.18;3.17;;;17.50;99.90;;;;;;5075069;28;20079;-64
2022/08/31 04:09:46;;;;;;;5.82;3.95;;;17.40;99.90;;;;;;5075321;28;20503;-64
2022/08/31 04:12:13;;;;;;;6.68;3.08;;;17.40;99.90;;;;;;5075385;28;20044;-64
2022/08/31 04:14:39;;;;;;;6.20;3.92;;;17.40;99.90;;;;;;5074896;28;20115;-64
2022/08/31 04:17:08;;;;;;;6.28;3.70;;;17.40;99.90;;;;;;5074937;28;20079;-65
2022/08/31 04:19:33;;;;;;;4.20;3.22;;;17.40;99.90;;;;;;5072302;28;20094;-64
2022/08/31 04:21:59;;;;;;;4.85;3.13;;;17.30;99.90;;;;;;5057907;28;20085;-64
2022/08/31 04:24:25;;;;;;;6.45;3.28;;;17.50;99.90;;;;;;5054072;28;20045;-64
2022/08/31 04:26:52;;;;;;;6.00;3.72;;;17.50;99.90;;;;;;5055068;28;20507;-64
2022/08/31 04:29:18;;;;;;;6.40;3.25;;;17.60;99.90;;;;;;5055054;28;20127;-66
2022/08/31 04:31:45;;;;;;;6.05;3.75;;;17.50;99.90;;;;;;5054942;28;20396;-65
2022/08/31 04:34:12;;;;;;;6.03;3.88;;;17.50;99.90;;;;;;5054961;28;20071;-64
2022/08/31 04:36:38;;;;;;;5.13;4.15;;;;;;;;;;5054844;28;20126;-64
2022/08/31 04:39:05;;;;;;;4.75;3.08;;;17.40;99.90;;;;;;5054516;28;20453;-64
2022/08/31 04:41:34;;;;;;;5.07;3.70;;;17.30;99.90;;;;;;5054169;28;20079;-63
2022/08/31 04:44:02;;;;;;;5.85;3.28;;;17.30;99.90;;;;;;5054646;28;20047;-63
2022/08/31 04:46:29;;;;;;;5.22;3.53;;;17.30;99.90;;;;;;5065469;28;20123;-64
2022/08/31 04:48:56;;;;;;;4.85;3.42;;;17.30;99.90;;;;;;5074210;28;20056;-64
2022/08/31 04:51:25;;;;;;;6.57;3.60;;;17.10;99.90;;;;;;5074171;28;20107;-64
2022/08/31 04:53:54;;;;;;;4.82;3.50;;;17.30;99.90;;;;;;5072499;28;20044;-64
2022/08/31 04:56:26;;;;;;;6.10;4.03;;;17.00;99.90;;;;;;5072612;28;20044;-63
2022/08/31 04:59:04;;;;;;;5.35;3.40;;;17.10;99.90;;;;;;5073265;28;20475;-63
2022/08/31 05:01:33;;;;;;;5.75;3.70;;;17.10;99.90;;;;;;5073076;28;20047;-63
2022/08/31 05:03:59;;;;;;;6.65;4.93;;;17.10;99.90;;;;;;5073631;28;20080;-64
2022/08/31 05:06:32;;;;;;;5.70;4.13;;;17.10;99.90;;;;;;5073476;28;20400;-63
2022/08/31 05:09:04;;;;;;;6.43;4.07;;;17.10;99.90;;;;;;5073193;28;20674;-63
2022/08/31 05:11:30;;;;;;;5.70;3.60;;;17.10;99.90;;;;;;5072961;28;20040;-63
2022/08/31 05:13:58;;;;;;;4.85;3.53;;;16.90;99.90;;;;;;5073076;28;20403;-63
2022/08/31 05:16:24;;;;;;;4.78;3.25;;;16.90;99.90;;;;;;5072073;28;20433;-63
2022/08/31 05:18:51;;;;;;;4.60;3.42;;;17.10;99.90;;;;;;5073271;28;20052;-63
2022/08/31 05:21:28;;;;;;;4.43;2.83;;;17.20;99.90;;;;;;5073445;28;20040;-64
2022/08/31 05:23:56;;;;;;;4.13;3.20;;;17.40;99.90;;;;;;5073082;28;20067;-63
2022/08/31 05:26:25;;;;;;;4.13;3.42;;;17.30;99.90;;;;;;5073889;28;20411;-64
2022/08/31 05:28:51;;;;;;;4.90;3.55;;;17.40;99.90;;;;;;5073942;28;20048;-63
2022/08/31 05:31:17;;;;;;;5.78;3.67;;;17.40;99.90;;;;;;5074022;28;20036;-64
2022/08/31 05:33:44;;;;;;;8.27;3.63;;;17.50;99.90;;;;;;5072896;28;20059;-63
2022/08/31 05:36:11;;;;;;;6.45;3.90;;;17.50;99.90;;;;;;5073571;28;20798;-63
2022/08/31 05:38:37;;;;;;;7.10;3.25;;;17.60;99.90;;;;;;5072943;28;20048;-64
2022/08/31 05:41:04;;;;;;;3.55;2.67;;;17.70;99.90;;;;;;5073752;28;20079;-63
2022/08/31 05:43:31;;;;;;;3.60;2.63;;;17.80;99.90;;;;;;5072593;28;20103;-63
2022/08/31 05:45:57;;;;;;;4.60;3.50;;;17.90;99.90;;;;;;5073920;28;20040;-63
2022/08/31 05:48:24;;;;;;;4.60;3.13;;;17.90;99.90;;;;;;5073849;28;20357;-63
2022/08/31 05:50:50;;;;;;;4.50;3.22;;;;;;;;;;5073715;28;20040;-64
2022/08/31 05:53:16;;;;;;;3.88;3.10;;;18.40;99.90;;;;;;5073549;28;20515;-63
2022/08/31 05:55:42;;;;;;;5.15;3.30;;;;;;;;;;5073466;28;20537;-64
2022/08/31 05:58:08;;;;;;;6.10;3.40;;;18.50;99.90;;;;;;5073521;28;20048;-63
2022/08/31 06:00:37;;;;;;;5.57;3.55;;;18.50;99.90;;;;;;5073571;28;20077;-63
2022/08/31 06:03:03;;;;;;;6.35;3.20;;;18.30;99.90;;;;;;5073527;28;20044;-63
2022/08/31 06:05:29;;;;;;;5.43;2.47;;;18.20;99.90;;;;;;5073679;28;20045;-63
2022/08/31 06:07:55;;;;;;;3.90;2.78;;;18.20;99.90;;;;;;5073707;28;20042;-63
2022/08/31 06:10:21;;;;;;;4.07;2.75;;;18.20;99.90;;;;;;5077771;28;20511;-63
2022/08/31 06:12:47;;;;;;;3.97;2.78;;;18.40;99.90;;;;;;5077552;28;20072;-63
2022/08/31 06:15:14;;;;;;;4.13;2.80;;;18.60;99.90;;;;;;5077435;28;20110;-63
2022/08/31 06:17:40;;;;;;;5.25;2.80;;;18.70;99.90;;;;;;5077466;28;20128;-63
2022/08/31 06:20:07;;;;;;;4.57;2.78;;;19.30;99.90;;;;;;5077491;28;20040;-63
2022/08/31 06:22:37;;;;;;;4.05;2.78;;;19.50;99.90;;;;;;5077395;28;20067;-63
2022/08/31 06:25:05;;;;;;;4.15;2.88;;;19.50;99.90;;;;;;5077297;28;20036;-63
2022/08/31 06:27:32;;;;;;;3.85;2.85;;;19.90;99.90;;;;;;5077493;28;20040;-63
2022/08/31 06:30:00;;;;;;;4.45;3.10;;;;;;;;;;5076997;28;20169;-64
2022/08/31 06:32:27;;;;;;;3.10;2.55;;;20.20;99.90;;;;;;5076903;28;20079;-63
2022/08/31 06:34:52;;;;;;;9.93;3.22;;;20.60;99.90;;;;;;5077200;28;20357;-65
2022/08/31 06:37:18;;;;;;;5.57;3.00;;;20.70;99.90;;;;;;5077155;28;20101;-64
2022/08/31 06:39:45;;;;;;;4.47;2.80;;;20.70;99.90;;;;;;5077081;28;20392;-63
2022/08/31 06:42:11;;;;;;;4.38;2.60;;;21.00;99.90;;;;;;5076900;28;20509;-64
2022/08/31 06:44:37;;;;;;;5.05;2.72;;;21.00;99.90;;;;;;5077093;28;20032;-64
2022/08/31 06:47:03;;;;;;;3.75;2.40;;;20.90;99.90;;;;;;5076858;28;20036;-64
2022/08/31 06:49:28;;;;;;;3.78;2.90;;;20.40;99.90;;;;;;5077139;28;20097;-65
2022/08/31 06:51:56;;;;;;;3.45;2.83;;;20.50;99.90;;;;;;5077052;28;20072;-64
2022/08/31 06:54:22;;;;;;;3.50;2.50;;;20.30;99.90;;;;;;5076751;28;20045;-64
2022/08/31 06:56:48;;;;;;;3.80;2.80;;;20.50;99.90;;;;;;5076951;28;20040;-65
2022/08/31 06:59:14;;;;;;;2.30;2.08;;;20.50;99.90;;;;;;5076803;28;20457;-66
2022/08/31 07:01:40;;;;;;;2.42;2.00;;;20.90;99.90;;;;;;5076659;28;20084;-64
2022/08/31 07:04:08;;;;;;;4.28;2.20;;;21.20;99.90;;;;;;5076753;28;20561;-64
2022/08/31 07:06:44;;;;;;;5.32;2.88;;;22.00;99.90;;;;;;5076657;28;20499;-64
2022/08/31 07:09:16;;;;;;;4.20;2.92;;;22.00;99.90;;;;;;5076503;28;20040;-64
2022/08/31 07:11:47;;;;;;;3.78;2.38;;;22.00;99.90;;;;;;5076625;28;20492;-64
2022/08/31 07:14:16;;;;;;;4.18;2.58;;;22.00;99.90;;;;;;5076403;28;20037;-64
2022/08/31 07:16:43;;;;;;;3.50;2.70;;;22.20;99.90;;;;;;5076296;28;20036;-64
2022/08/31 07:19:10;;;;;;;4.35;2.45;;;22.10;99.90;;;;;;5075813;28;20060;-64
2022/08/31 07:21:47;;;;;;;4.75;2.50;;;22.40;99.90;;;;;;5076208;28;20050;-64
2022/08/31 07:24:15;;;;;;;4.72;2.72;;;;;;;;;;5076320;28;20040;-64
2022/08/31 07:26:43;;;;;;;3.75;2.70;;;23.00;99.90;;;;;;5076171;28;20071;-64
2022/08/31 07:29:13;;;;;;;4.18;2.30;;;22.70;99.90;;;;;;5072506;28;20036;-64
2022/08/31 07:31:46;;;;;;;2.80;2.50;;;22.70;99.90;;;;;;5056990;28;20051;-64
2022/08/31 07:34:27;;;;;;;6.97;2.25;;;23.10;99.90;;;;;;5052167;28;20123;-64
2022/08/31 07:42:27;;;;;;;3.35;2.38;;;23.70;99.90;;;;;;5051960;28;20844;-63
2022/08/31 07:45:04;;;;;;;2.20;2.00;;;23.70;99.90;;;;;;5070338;28;20050;-63
2022/08/31 07:47:31;;;;;;;2.55;2.10;;;23.60;99.90;;;;;;5072294;28;20036;-63
2022/08/31 07:49:59;;;;;;;3.00;2.03;;;23.70;99.90;;;;;;5072909;28;20056;-63
2022/08/31 07:52:31;;;;;;;4.55;1.90;;;23.70;99.90;;;;;;5072927;28;20406;-63
2022/08/31 07:55:06;;;;;;;2.45;2.00;;;24.40;99.90;;;;;;5070566;28;20127;-63
2022/08/31 07:57:41;;;;;;;2.58;2.08;;;;;;;;;;5072821;28;20028;-63
2022/08/31 08:00:07;;;;;;;2.65;1.70;;;24.90;99.90;;;;;;5072109;28;20044;-63
2022/08/31 08:02:38;;;;;;;3.40;2.22;;;24.70;99.90;;;;;;5072846;28;20043;-63
2022/08/31 08:05:09;;;;;;;3.03;2.20;;;24.90;99.90;;;;;;5072923;28;20074;-63
2022/08/31 08:07:37;;;;;;;3.15;2.25;;;24.80;99.90;;;;;;5073029;28;20396;-63
2022/08/31 08:10:12;;;;;;;4.65;1.90;;;24.30;99.90;;;;;;5071796;28;20043;-64
2022/08/31 08:12:42;;;;;;;2.85;2.03;;;24.20;99.90;;;;;;5067965;28;20044;-63
2022/08/31 08:15:09;;;;;;;2.10;1.90;;;24.80;99.90;;;;;;5072441;28;20059;-63
2022/08/31 08:17:35;;;;;;;3.92;2.22;;;24.70;99.90;;;;;;5072537;28;20559;-63
2022/08/31 08:20:02;;;;;;;3.92;2.22;;;23.90;99.90;;;;;;5072125;28;20518;-64
2022/08/31 08:22:27;;;;;;;4.60;2.33;;;23.40;99.90;;;;;;5071159;28;20087;-63
2022/08/31 08:24:54;;;;;;;3.75;2.15;;;23.20;99.90;;;;;;5070860;28;20090;-63
2022/08/31 08:27:19;;;;;;;2.55;2.20;;;23.60;99.90;;;;;;5070809;28;20070;-63
2022/08/31 08:29:45;;;;;;;3.55;2.42;;;23.80;99.90;;;;;;5072749;28;20500;-63
2022/08/31 08:32:11;;;;;;;2.47;2.03;;;23.70;99.90;;;;;;5071420;28;20082;-63
2022/08/31 08:34:42;;;;;;;3.47;2.30;;;23.00;99.90;;;;;;5070122;28;20048;-64
2022/08/31 08:37:09;;;;;;;2.85;2.40;;;23.20;99.90;;;;;;5071925;28;20052;-63
2022/08/31 08:39:39;;;;;;;2.40;2.13;;;23.60;99.90;;;;;;5071976;28;20043;-63
2022/08/31 08:42:08;;;;;;;3.85;2.28;;;23.60;99.90;;;;;;5070325;28;20056;-63
2022/08/31 08:44:36;;;;;;;4.05;2.30;;;23.50;99.90;;;;;;5070497;28;20439;-63
2022/08/31 08:47:13;;;;;;;4.45;2.50;;;24.60;99.90;;;;;;5071477;28;20533;-63
2022/08/31 08:49:48;;;;;;;2.97;1.95;;;23.90;99.90;;;;;;5071617;28;20105;-63
2022/08/31 08:52:24;;;;;;;2.67;2.17;;;23.30;99.90;;;;;;5071108;28;20033;-63
2022/08/31 08:54:53;;;;;;;4.72;2.70;;;23.90;99.90;;;;;;5071177;28;20388;-64
2022/08/31 08:57:26;;;;;;;2.60;2.05;;;23.50;99.90;;;;;;5070828;28;20032;-63
2022/08/31 08:59:56;;;;;;;2.50;2.08;;;23.80;99.90;;;;;;5068452;28;20048;-63
2022/08/31 09:02:57;;;;;;;4.85;2.20;;;24.60;99.90;;;;;;5071780;28;20048;-63
2022/08/31 09:05:33;;;;;;;;;;;24.50;99.90;;;;;;5072013;28;20037;-63
2022/08/31 09:08:16;;;;;;;3.08;2.28;;;24.30;99.90;;;;;;5071362;28;20287;-63
2022/08/31 09:11:05;;;;;;;2.40;2.03;;;24.20;99.90;;;;;;5070896;28;20029;-63
2022/08/31 09:14:06;;;;;;;5.30;2.30;;;23.70;99.90;;;;;;5070843;28;20048;-63
2022/08/31 09:17:00;;;;;;;3.10;2.17;;;24.10;99.90;;;;;;5070703;28;20575;-63
2022/08/31 09:19:25;;;;;;;3.70;2.08;;;25.20;99.90;;;;;;5071498;28;20482;-63
2022/08/31 09:21:56;;;;;;;2.72;2.00;;;25.60;99.90;;;;;;5071308;28;20029;-63
2022/08/31 09:24:28;;;;;;;3.40;2.30;;;25.30;99.90;;;;;;5072914;28;20044;-63
2022/08/31 09:27:16;;;;;;;2.72;2.00;;;26.00;99.90;;;;;;5072604;28;20032;-63
2022/08/31 09:29:43;;;;;;;3.22;2.05;;;25.80;99.90;;;;;;5071316;28;20142;-63
2022/08/31 09:32:15;;;;;;;3.00;2.03;;;25.90;99.90;;;;;;5070487;28;20135;-63
2022/08/31 09:34:41;;;;;;;4.40;2.28;;;25.60;99.00;;;;;;5069752;28;20032;-63
2022/08/31 09:37:23;;;;;;;4.68;2.67;;;24.80;99.50;;;;;;5070037;28;20502;-63
2022/08/31 09:39:51;;;;;;;4.13;2.42;;;24.70;99.60;;;;;;5069397;28;20036;-63
2022/08/31 09:42:19;;;;;;;3.53;2.33;;;24.10;99.90;;;;;;5069012;28;20059;-63
2022/08/31 09:44:48;;;;;;;3.88;2.33;;;24.50;99.90;;;;;;5071122;28;20040;-63
2022/08/31 09:47:47;;;;;;;4.18;1.90;;;24.60;99.90;;;;;;5070787;28;20075;-63
2022/08/31 09:50:43;;;;;;;3.92;2.53;;;24.80;99.40;;;;;;5067000;28;20036;-63
2022/08/31 09:56:13;;;;;;;3.00;2.42;;;25.30;97.70;;;;;;5056233;28;20086;-63
2022/08/31 09:58:54;;;;;;;3.28;2.30;;;25.20;98.60;;;;;;5067272;28;20051;-63
2022/08/31 10:01:33;;;;;;;4.53;2.38;;;24.90;98.30;;;;;;5069240;28;20040;-63
2022/08/31 10:04:35;;;;;;;4.35;2.63;;;25.20;98.10;;;;;;5069534;28;20048;-63
2022/08/31 10:07:16;;;;;;;4.85;2.78;;;25.10;97.90;;;;;;5069759;28;20115;-63
2022/08/31 10:09:51;;;;;;;2.95;2.40;;;25.00;98.00;;;;;;5069298;28;20075;-64
2022/08/31 10:12:44;;;;;;;3.70;2.58;;;25.30;97.20;;;;;;5069625;28;20468;-63
2022/08/31 10:15:35;;;;;;;3.45;2.42;;;25.70;96.80;;;;;;5071820;28;20040;-63
2022/08/31 10:18:13;;;;;;;5.65;2.70;;;25.50;96.60;;;;;;5070673;28;20056;-63
2022/08/31 10:20:49;;;;;;;4.22;2.85;;;25.40;96.60;;;;;;5070424;28;20161;-63
2022/08/31 10:23:25;;;;;;;3.70;2.65;;;25.30;96.60;;;;;;5070673;28;20056;-63
2022/08/31 10:25:57;;;;;;;4.53;2.60;;;25.20;96.80;;;;;;5070471;28;20044;-63
2022/08/31 10:28:46;;;;;;;4.55;2.38;;;25.20;96.60;;;;;;5070179;28;20118;-63
2022/08/31 10:31:35;;;;;;;4.88;3.00;;;25.00;96.90;;;;;;5070615;28;20581;-64
2022/08/31 10:37:02;;;;;;;3.42;2.53;;;24.90;96.30;;;;;;5070491;28;20043;-63
2022/08/31 10:39:41;;;;;;;3.55;2.55;;;25.10;96.40;;;;;;5070632;28;20044;-64
2022/08/31 10:42:18;;;;;;;3.72;3.03;;;25.50;96.60;;;;;;5070456;28;20106;-63
2022/08/31 10:44:55;;;;;;;3.60;2.70;;;25.90;95.80;;;;;;5072374;28;20094;-63
2022/08/31 10:47:24;;;;;;;4.20;2.35;;;25.70;95.30;;;;;;5070146;28;20086;-64
2022/08/31 10:49:55;;;;;;;3.60;2.88;;;25.30;95.20;;;;;;5069406;28;20036;-64
2022/08/31 10:52:31;;;;;;;4.40;2.45;;;24.80;96.00;;;;;;5064557;28;20044;-63
2022/08/31 10:55:27;;;;;;;3.17;2.50;;;25.10;95.80;;;;;;5068917;28;20115;-63
2022/08/31 10:58:13;;;;;;;3.75;2.80;;;25.40;95.90;;;;;;5074794;28;20040;-63
2022/08/31 11:00:55;;;;;;;4.43;3.08;;;25.20;95.60;;;;;;5073654;28;20041;-63
2022/08/31 11:03:39;;;;;;;4.95;2.80;;;25.90;95.20;;;;;;5071973;28;20054;-64
2022/08/31 11:06:35;;;;;;;4.88;2.55;;;26.00;94.90;;;;;;5074562;28;20484;-63
2022/08/31 11:09:24;;;;;;;6.07;2.75;;;25.50;95.00;;;;;;5074711;28;20048;-63
2022/08/31 11:12:05;;;;;;;4.70;3.00;;;25.50;94.90;;;;;;5075639;28;20040;-64
2022/08/31 11:15:04;;;;;;;4.95;2.53;;;25.40;94.90;;;;;;5076273;28;20052;-63
2022/08/31 11:17:48;;;;;;;3.30;2.08;;;26.00;94.50;;;;;;5076640;28;20040;-63
2022/08/31 11:20:32;;;;;;;3.60;2.38;;;25.80;94.60;;;;;;5076420;28;20048;-64
2022/08/31 11:23:37;;;;;;;3.13;2.47;;;25.70;94.20;;;;;;5076201;28;20066;-63
2022/08/31 11:26:17;;;;;;;5.07;2.72;;;25.50;94.20;;;;;;5053732;28;20040;-63
2022/08/31 11:28:48;;;;;;;3.55;2.88;;;25.40;94.70;;;;;;5073404;28;20035;-63
2022/08/31 11:31:22;;;;;;;6.28;2.35;;;25.40;94.30;;;;;;5075475;28;20037;-63
2022/08/31 11:34:11;;;;;;;3.55;2.63;;;25.10;94.30;;;;;;5075654;28;20046;-64
2022/08/31 11:36:56;;;;;;;5.80;2.67;;;25.00;94.30;;;;;;5073679;28;20099;-63
2022/08/31 11:39:34;;;;;;;5.60;3.15;;;25.20;94.40;;;;;;5073979;28;20041;-64
2022/08/31 11:42:32;;;;;;;6.30;2.70;;;25.70;94.20;;;;;;5073547;28;21931;-63
2022/08/31 11:45:05;;;;;;;6.15;2.83;;;25.60;93.90;;;;;;5073861;28;20114;-63
2022/08/31 11:47:36;;;;;;;3.22;2.83;;;25.60;93.70;;;;;;5073587;28;20043;-63
2022/08/31 11:50:12;;;;;;;5.30;3.05;;;25.60;93.60;;;;;;5075260;28;20518;-63
2022/08/31 11:52:52;;;;;;;3.55;2.47;;;25.40;93.70;;;;;;5075875;28;20418;-64
2022/08/31 11:55:27;;;;;;;6.70;3.63;;;25.10;93.70;;;;;;5075280;28;20044;-64
2022/08/31 11:58:06;;;;;;;8.80;3.17;;;25.00;93.60;;;;;;5075073;28;20043;-64
2022/08/31 12:01:01;;;;;;;4.43;2.50;;;25.70;93.30;;;;;;5075197;28;20399;-65
2022/08/31 12:03:43;;;;;;;6.15;2.67;;;26.10;92.90;;;;;;5072892;28;20048;-63
2022/08/31 12:06:26;;;;;;;5.93;2.70;;;25.30;93.20;;;;;;5072475;28;20044;-64
2022/08/31 12:09:16;;;;;;;4.75;2.83;;;25.20;93.10;;;;;;5073438;28;20045;-64
2022/08/31 12:12:09;;;;;;;5.70;2.87;;;25.70;93.20;;;;;;5073485;28;20043;-64
2022/08/31 12:14:48;;;;;;;3.65;2.60;;;25.40;93.20;;;;;;5073385;28;20289;-63
2022/08/31 12:17:37;;;;;;;3.72;2.40;;;26.10;93.00;;;;;;5074545;28;20048;-64
2022/08/31 12:20:11;;;;;;;4.35;2.50;;;25.90;92.70;;;;;;5074985;28;20059;-63
2022/08/31 12:26:07;;;;;;;3.63;2.38;;;;;;;;;;5074787;28;20087;-63
2022/08/31 12:28:54;;;;;;;7.88;2.95;;;26.30;91.50;;;;;;5075225;28;20123;-63
2022/08/31 12:31:19;;;;;;;3.58;2.28;;;26.70;91.60;;;;;;5075084;28;20451;-64
2022/08/31 12:33:58;;;;;;;4.55;2.55;;;26.80;91.50;;;;;;5074958;28;20037;-63
2022/08/31 12:36:29;;;;;;;3.83;2.78;;;26.90;91.30;;;;;;5075081;28;20033;-64
2022/08/31 12:39:10;;;;;;;5.00;3.03;;;26.50;91.50;;;;;;5074845;28;20123;-64
2022/08/31 12:41:48;;;;;;;5.50;3.05;;;26.30;91.50;;;;;;5074704;28;20055;-64
2022/08/31 12:44:24;;;;;;;7.00;2.88;;;26.30;91.20;;;;;;5074620;28;20040;-64
2022/08/31 12:47:01;;;;;;;5.93;3.00;;;26.40;91.40;;;;;;5074731;28;20039;-64
2022/08/31 12:49:43;;;;;;;3.90;2.47;;;26.90;91.10;;;;;;5074753;28;20400;-64
2022/08/31 12:52:44;;;;;;;3.53;2.28;;;26.90;91.10;;;;;;5074592;28;20123;-65
2022/08/31 12:55:43;;;;;;;4.47;2.85;;;26.70;90.70;;;;;;5074661;28;20438;-64
2022/08/31 12:58:32;;;;;;;4.90;2.78;;;26.60;90.90;;;;;;5074689;28;20043;-63
2022/08/31 13:01:11;;;;;;;4.38;2.90;;;26.50;91.20;;;;;;5074352;28;20047;-65
2022/08/31 13:03:46;;;;;;;3.63;2.60;;;26.40;90.50;;;;;;5074366;28;20048;-64
2022/08/31 13:06:14;;;;;;;3.53;2.83;;;26.20;90.20;;;;;;5074229;28;20040;-63
2022/08/31 13:08:43;;;;;;;3.45;2.75;;;25.80;90.60;;;;;;5074325;28;20048;-65
2022/08/31 13:11:26;;;;;;;4.10;2.85;;;26.00;91.20;;;;;;5074700;28;20044;-63
2022/08/31 13:14:05;;;;;;;6.32;2.90;;;26.50;90.80;;;;;;5074452;28;20044;-65
2022/08/31 13:16:31;;;;;;;3.53;2.60;;;26.60;90.00;;;;;;5074099;28;20174;-65
2022/08/31 13:19:04;;;;;;;3.90;2.65;;;26.40;88.10;;;;;;5074102;28;20064;-64
2022/08/31 13:21:32;;;;;;;3.70;2.30;;;26.30;86.60;;;;;;5074297;28;20052;-64
2022/08/31 13:24:09;;;;;;;3.67;2.55;;;26.40;87.00;;;;;;5074082;28;20048;-63
2022/08/31 13:26:37;;;;;;;8.23;3.05;;;26.10;87.60;;;;;;5074367;28;20120;-63
2022/08/31 13:29:08;;;;;;;3.95;2.72;;;26.30;88.60;;;;;;5074232;28;20037;-64
2022/08/31 13:31:47;;;;;;;5.20;3.03;;;26.30;88.70;;;;;;5074313;28;20063;-63